sensor_id;sensor_type;location;lat;lon;timestamp;P1;durP1;ratioP1;P2;durP2;ratioP2
5900;SDS011;2976;49.764;9.796;2023-09-18T00:01:37;3.83;;;3.43;;
5900;SDS011;2976;49.764;9.796;2023-09-18T00:04:04;6.00;;;4.47;;
5900;SDS011;2976;49.764;9.796;2023-09-18T00:06:32;6.67;;;4.60;;
5900;SDS011;2976;49.764;9.796;2023-09-18T00:08:57;4.63;;;4.10;;
5900;SDS011;2976;49.764;9.796;2023-09-18T00:11:23;4.17;;;3.67;;
5900;SDS011;2976;49.764;9.796;2023-09-18T00:13:49;5.07;;;4.57;;
5900;SDS011;2976;49.764;9.796;2023-09-18T00:16:14;4.30;;;3.87;;
5900;SDS011;2976;49.764;9.796;2023-09-18T00:18:40;5.77;;;4.40;;
5900;SDS011;2976;49.764;9.796;2023-09-18T00:21:07;6.37;;;3.60;;
5900;SDS011;2976;49.764;9.796;2023-09-18T00:23:35;3.93;;;3.57;;
5900;SDS011;2976;49.764;9.796;2023-09-18T00:26:01;3.40;;;3.20;;
5900;SDS011;2976;49.764;9.796;2023-09-18T00:28:26;6.47;;;4.30;;
5900;SDS011;2976;49.764;9.796;2023-09-18T00:30:52;4.80;;;4.10;;
5900;SDS011;2976;49.764;9.796;2023-09-18T00:33:19;4.07;;;3.77;;
5900;SDS011;2976;49.764;9.796;2023-09-18T00:35:46;4.50;;;3.83;;
5900;SDS011;2976;49.764;9.796;2023-09-18T00:38:12;6.73;;;3.87;;
5900;SDS011;2976;49.764;9.796;2023-09-18T00:40:38;7.07;;;4.37;;
5900;SDS011;2976;49.764;9.796;2023-09-18T00:43:04;3.57;;;3.27;;
5900;SDS011;2976;49.764;9.796;2023-09-18T00:45:29;14.47;;;4.07;;
5900;SDS011;2976;49.764;9.796;2023-09-18T00:47:55;7.80;;;3.97;;
5900;SDS011;2976;49.764;9.796;2023-09-18T00:50:21;4.33;;;3.90;;
5900;SDS011;2976;49.764;9.796;2023-09-18T00:52:47;4.57;;;4.07;;
5900;SDS011;2976;49.764;9.796;2023-09-18T00:55:14;4.83;;;4.40;;
5900;SDS011;2976;49.764;9.796;2023-09-18T00:57:40;4.40;;;4.00;;
5900;SDS011;2976;49.764;9.796;2023-09-18T01:00:07;4.10;;;3.80;;
5900;SDS011;2976;49.764;9.796;2023-09-18T01:02:34;5.07;;;4.00;;
5900;SDS011;2976;49.764;9.796;2023-09-18T01:04:59;4.70;;;4.30;;
5900;SDS011;2976;49.764;9.796;2023-09-18T01:07:26;7.30;;;3.97;;
5900;SDS011;2976;49.764;9.796;2023-09-18T01:09:53;5.10;;;4.60;;
5900;SDS011;2976;49.764;9.796;2023-09-18T01:17:38;4.63;;;4.17;;
5900;SDS011;2976;49.764;9.796;2023-09-18T01:20:05;4.30;;;3.90;;
5900;SDS011;2976;49.764;9.796;2023-09-18T01:22:34;5.70;;;4.50;;
5900;SDS011;2976;49.764;9.796;2023-09-18T01:24:59;4.60;;;4.17;;
5900;SDS011;2976;49.764;9.796;2023-09-18T01:27:25;5.20;;;4.20;;
5900;SDS011;2976;49.764;9.796;2023-09-18T01:29:51;7.23;;;4.37;;
5900;SDS011;2976;49.764;9.796;2023-09-18T01:32:18;4.63;;;4.20;;
5900;SDS011;2976;49.764;9.796;2023-09-18T01:34:48;5.47;;;4.97;;
5900;SDS011;2976;49.764;9.796;2023-09-18T01:37:16;4.77;;;4.37;;
5900;SDS011;2976;49.764;9.796;2023-09-18T01:39:45;5.17;;;4.67;;
5900;SDS011;2976;49.764;9.796;2023-09-18T01:42:13;5.73;;;5.17;;
5900;SDS011;2976;49.764;9.796;2023-09-18T01:44:38;7.50;;;5.23;;
5900;SDS011;2976;49.764;9.796;2023-09-18T01:47:06;4.63;;;4.27;;
5900;SDS011;2976;49.764;9.796;2023-09-18T01:49:33;5.37;;;4.83;;
5900;SDS011;2976;49.764;9.796;2023-09-18T01:52:03;5.50;;;4.47;;
5900;SDS011;2976;49.764;9.796;2023-09-18T01:54:30;4.87;;;4.47;;
5900;SDS011;2976;49.764;9.796;2023-09-18T01:56:56;6.80;;;5.07;;
5900;SDS011;2976;49.764;9.796;2023-09-18T01:59:22;5.53;;;4.50;;
5900;SDS011;2976;49.764;9.796;2023-09-18T02:01:48;6.10;;;5.00;;
5900;SDS011;2976;49.764;9.796;2023-09-18T02:04:14;4.77;;;4.27;;
5900;SDS011;2976;49.764;9.796;2023-09-18T02:06:40;5.40;;;4.13;;
5900;SDS011;2976;49.764;9.796;2023-09-18T02:09:06;6.07;;;5.23;;
5900;SDS011;2976;49.764;9.796;2023-09-18T02:11:38;7.80;;;4.67;;
5900;SDS011;2976;49.764;9.796;2023-09-18T02:14:04;5.37;;;4.60;;
5900;SDS011;2976;49.764;9.796;2023-09-18T02:16:34;8.70;;;5.77;;
5900;SDS011;2976;49.764;9.796;2023-09-18T02:19:01;7.43;;;4.00;;
5900;SDS011;2976;49.764;9.796;2023-09-18T02:21:27;5.83;;;4.37;;
5900;SDS011;2976;49.764;9.796;2023-09-18T02:23:53;7.30;;;5.70;;
5900;SDS011;2976;49.764;9.796;2023-09-18T02:26:20;8.87;;;5.13;;
5900;SDS011;2976;49.764;9.796;2023-09-18T02:28:46;5.23;;;4.73;;
5900;SDS011;2976;49.764;9.796;2023-09-18T02:31:12;6.30;;;5.10;;
5900;SDS011;2976;49.764;9.796;2023-09-18T02:33:38;5.90;;;4.90;;
5900;SDS011;2976;49.764;9.796;2023-09-18T02:36:05;6.77;;;5.03;;
5900;SDS011;2976;49.764;9.796;2023-09-18T02:38:32;4.77;;;4.37;;
5900;SDS011;2976;49.764;9.796;2023-09-18T02:40:58;7.50;;;4.37;;
5900;SDS011;2976;49.764;9.796;2023-09-18T02:43:24;5.60;;;4.40;;
5900;SDS011;2976;49.764;9.796;2023-09-18T02:45:50;5.30;;;4.80;;
5900;SDS011;2976;49.764;9.796;2023-09-18T02:48:16;7.13;;;4.63;;
5900;SDS011;2976;49.764;9.796;2023-09-18T02:50:42;7.87;;;5.30;;
5900;SDS011;2976;49.764;9.796;2023-09-18T02:53:12;5.10;;;4.60;;
5900;SDS011;2976;49.764;9.796;2023-09-18T02:55:51;4.97;;;4.57;;
5900;SDS011;2976;49.764;9.796;2023-09-18T02:58:17;4.53;;;4.13;;
5900;SDS011;2976;49.764;9.796;2023-09-18T03:00:48;6.40;;;5.20;;
5900;SDS011;2976;49.764;9.796;2023-09-18T03:03:15;9.87;;;5.10;;
5900;SDS011;2976;49.764;9.796;2023-09-18T03:05:42;8.20;;;4.90;;
5900;SDS011;2976;49.764;9.796;2023-09-18T03:08:08;5.20;;;4.70;;
5900;SDS011;2976;49.764;9.796;2023-09-18T03:10:36;10.03;;;5.43;;
5900;SDS011;2976;49.764;9.796;2023-09-18T03:13:04;7.73;;;5.43;;
5900;SDS011;2976;49.764;9.796;2023-09-18T03:15:30;6.50;;;5.20;;
5900;SDS011;2976;49.764;9.796;2023-09-18T03:17:59;7.10;;;4.70;;
5900;SDS011;2976;49.764;9.796;2023-09-18T03:20:26;6.03;;;4.50;;
5900;SDS011;2976;49.764;9.796;2023-09-18T03:22:53;6.07;;;5.47;;
5900;SDS011;2976;49.764;9.796;2023-09-18T03:25:21;7.33;;;6.03;;
5900;SDS011;2976;49.764;9.796;2023-09-18T03:27:48;8.33;;;6.20;;
5900;SDS011;2976;49.764;9.796;2023-09-18T03:30:15;9.33;;;5.87;;
5900;SDS011;2976;49.764;9.796;2023-09-18T03:32:41;6.40;;;5.57;;
5900;SDS011;2976;49.764;9.796;2023-09-18T03:35:07;7.50;;;6.33;;
5900;SDS011;2976;49.764;9.796;2023-09-18T03:37:40;9.90;;;5.20;;
5900;SDS011;2976;49.764;9.796;2023-09-18T03:40:06;10.10;;;6.47;;
5900;SDS011;2976;49.764;9.796;2023-09-18T03:42:33;8.13;;;7.30;;
5900;SDS011;2976;49.764;9.796;2023-09-18T03:44:59;7.77;;;6.27;;
5900;SDS011;2976;49.764;9.796;2023-09-18T03:47:25;8.33;;;6.73;;
5900;SDS011;2976;49.764;9.796;2023-09-18T03:49:50;8.23;;;6.00;;
5900;SDS011;2976;49.764;9.796;2023-09-18T03:52:16;9.93;;;6.70;;
5900;SDS011;2976;49.764;9.796;2023-09-18T03:54:42;7.50;;;6.70;;
5900;SDS011;2976;49.764;9.796;2023-09-18T03:57:07;8.03;;;6.53;;
5900;SDS011;2976;49.764;9.796;2023-09-18T03:59:33;7.70;;;6.90;;
5900;SDS011;2976;49.764;9.796;2023-09-18T04:01:58;7.20;;;6.00;;
5900;SDS011;2976;49.764;9.796;2023-09-18T04:04:24;9.30;;;7.50;;
5900;SDS011;2976;49.764;9.796;2023-09-18T04:06:49;7.30;;;6.00;;
5900;SDS011;2976;49.764;9.796;2023-09-18T04:09:15;12.73;;;7.60;;
5900;SDS011;2976;49.764;9.796;2023-09-18T04:11:40;13.07;;;7.60;;
5900;SDS011;2976;49.764;9.796;2023-09-18T04:14:06;8.97;;;7.33;;
5900;SDS011;2976;49.764;9.796;2023-09-18T04:16:32;6.83;;;6.00;;
5900;SDS011;2976;49.764;9.796;2023-09-18T04:19:00;8.13;;;7.30;;
5900;SDS011;2976;49.764;9.796;2023-09-18T04:21:26;8.27;;;6.53;;
5900;SDS011;2976;49.764;9.796;2023-09-18T04:23:52;7.50;;;6.20;;
5900;SDS011;2976;49.764;9.796;2023-09-18T04:26:22;7.87;;;6.83;;
5900;SDS011;2976;49.764;9.796;2023-09-18T04:28:48;12.47;;;6.93;;
5900;SDS011;2976;49.764;9.796;2023-09-18T04:31:14;9.80;;;7.03;;
5900;SDS011;2976;49.764;9.796;2023-09-18T04:33:39;8.80;;;6.90;;
5900;SDS011;2976;49.764;9.796;2023-09-18T04:36:05;9.07;;;7.87;;
5900;SDS011;2976;49.764;9.796;2023-09-18T04:38:31;8.63;;;7.27;;
5900;SDS011;2976;49.764;9.796;2023-09-18T04:41:01;14.30;;;7.13;;
5900;SDS011;2976;49.764;9.796;2023-09-18T04:43:26;8.53;;;7.63;;
5900;SDS011;2976;49.764;9.796;2023-09-18T04:45:54;16.03;;;7.23;;
5900;SDS011;2976;49.764;9.796;2023-09-18T04:48:20;11.47;;;6.50;;
5900;SDS011;2976;49.764;9.796;2023-09-18T04:50:46;10.63;;;7.70;;
5900;SDS011;2976;49.764;9.796;2023-09-18T04:53:12;8.87;;;7.00;;
5900;SDS011;2976;49.764;9.796;2023-09-18T04:55:38;11.90;;;7.13;;
5900;SDS011;2976;49.764;9.796;2023-09-18T04:58:03;8.13;;;6.50;;
5900;SDS011;2976;49.764;9.796;2023-09-18T05:00:30;10.80;;;6.80;;
5900;SDS011;2976;49.764;9.796;2023-09-18T05:02:56;9.07;;;6.00;;
5900;SDS011;2976;49.764;9.796;2023-09-18T05:05:25;13.10;;;6.20;;
5900;SDS011;2976;49.764;9.796;2023-09-18T05:07:50;9.47;;;6.80;;
5900;SDS011;2976;49.764;9.796;2023-09-18T05:10:16;7.80;;;6.50;;
5900;SDS011;2976;49.764;9.796;2023-09-18T05:12:42;10.17;;;6.70;;
5900;SDS011;2976;49.764;9.796;2023-09-18T05:15:08;12.07;;;6.93;;
5900;SDS011;2976;49.764;9.796;2023-09-18T05:17:44;7.73;;;6.93;;
5900;SDS011;2976;49.764;9.796;2023-09-18T05:20:19;6.93;;;6.20;;
5900;SDS011;2976;49.764;9.796;2023-09-18T05:22:44;8.07;;;7.17;;
5900;SDS011;2976;49.764;9.796;2023-09-18T05:25:10;9.70;;;7.37;;
5900;SDS011;2976;49.764;9.796;2023-09-18T05:27:37;9.03;;;6.60;;
5900;SDS011;2976;49.764;9.796;2023-09-18T05:30:12;7.97;;;6.20;;
5900;SDS011;2976;49.764;9.796;2023-09-18T05:32:40;7.33;;;6.50;;
5900;SDS011;2976;49.764;9.796;2023-09-18T05:35:10;8.07;;;5.40;;
5900;SDS011;2976;49.764;9.796;2023-09-18T05:37:37;6.87;;;5.30;;
5900;SDS011;2976;49.764;9.796;2023-09-18T05:40:04;10.20;;;5.67;;
5900;SDS011;2976;49.764;9.796;2023-09-18T05:42:32;7.50;;;5.67;;
5900;SDS011;2976;49.764;9.796;2023-09-18T05:44:57;8.90;;;5.13;;
5900;SDS011;2976;49.764;9.796;2023-09-18T05:47:23;5.20;;;4.70;;
5900;SDS011;2976;49.764;9.796;2023-09-18T05:49:49;7.77;;;5.57;;
5900;SDS011;2976;49.764;9.796;2023-09-18T05:52:14;7.30;;;4.70;;
5900;SDS011;2976;49.764;9.796;2023-09-18T05:54:40;7.77;;;4.93;;
5900;SDS011;2976;49.764;9.796;2023-09-18T05:57:05;7.03;;;5.83;;
5900;SDS011;2976;49.764;9.796;2023-09-18T05:59:32;6.93;;;6.23;;
5900;SDS011;2976;49.764;9.796;2023-09-18T06:01:57;11.80;;;6.30;;
5900;SDS011;2976;49.764;9.796;2023-09-18T06:04:23;7.90;;;6.17;;
5900;SDS011;2976;49.764;9.796;2023-09-18T06:06:49;14.93;;;6.60;;
5900;SDS011;2976;49.764;9.796;2023-09-18T06:09:16;7.53;;;6.27;;
5900;SDS011;2976;49.764;9.796;2023-09-18T06:11:41;5.93;;;5.30;;
5900;SDS011;2976;49.764;9.796;2023-09-18T06:14:07;17.70;;;5.57;;
5900;SDS011;2976;49.764;9.796;2023-09-18T06:16:33;7.50;;;5.47;;
5900;SDS011;2976;49.764;9.796;2023-09-18T06:18:58;8.93;;;5.50;;
5900;SDS011;2976;49.764;9.796;2023-09-18T06:21:25;5.83;;;4.63;;
5900;SDS011;2976;49.764;9.796;2023-09-18T06:23:50;6.27;;;4.70;;
5900;SDS011;2976;49.764;9.796;2023-09-18T06:26:16;9.90;;;5.83;;
5900;SDS011;2976;49.764;9.796;2023-09-18T06:28:42;6.27;;;5.00;;
5900;SDS011;2976;49.764;9.796;2023-09-18T06:31:08;7.63;;;5.60;;
5900;SDS011;2976;49.764;9.796;2023-09-18T06:33:34;5.83;;;5.20;;
5900;SDS011;2976;49.764;9.796;2023-09-18T06:35:59;8.80;;;6.27;;
5900;SDS011;2976;49.764;9.796;2023-09-18T06:38:25;6.17;;;5.37;;
5900;SDS011;2976;49.764;9.796;2023-09-18T06:40:51;6.40;;;5.10;;
5900;SDS011;2976;49.764;9.796;2023-09-18T06:43:18;7.93;;;5.80;;
5900;SDS011;2976;49.764;9.796;2023-09-18T06:45:43;12.23;;;6.03;;
5900;SDS011;2976;49.764;9.796;2023-09-18T06:48:09;9.77;;;6.23;;
5900;SDS011;2976;49.764;9.796;2023-09-18T06:50:34;10.80;;;6.80;;
5900;SDS011;2976;49.764;9.796;2023-09-18T06:53:01;9.33;;;6.77;;
5900;SDS011;2976;49.764;9.796;2023-09-18T06:55:27;8.70;;;5.87;;
5900;SDS011;2976;49.764;9.796;2023-09-18T06:57:52;11.00;;;5.37;;
5900;SDS011;2976;49.764;9.796;2023-09-18T07:00:18;10.97;;;6.10;;
5900;SDS011;2976;49.764;9.796;2023-09-18T07:02:46;14.47;;;5.50;;
5900;SDS011;2976;49.764;9.796;2023-09-18T07:05:12;9.47;;;4.87;;
5900;SDS011;2976;49.764;9.796;2023-09-18T07:07:37;8.23;;;5.63;;
5900;SDS011;2976;49.764;9.796;2023-09-18T07:10:03;7.30;;;5.00;;
5900;SDS011;2976;49.764;9.796;2023-09-18T07:12:29;8.43;;;6.23;;
5900;SDS011;2976;49.764;9.796;2023-09-18T07:14:54;8.33;;;4.43;;
5900;SDS011;2976;49.764;9.796;2023-09-18T07:17:20;4.73;;;3.10;;
5900;SDS011;2976;49.764;9.796;2023-09-18T07:19:46;5.63;;;2.80;;
5900;SDS011;2976;49.764;9.796;2023-09-18T07:22:11;3.20;;;2.27;;
5900;SDS011;2976;49.764;9.796;2023-09-18T07:24:37;6.07;;;2.20;;
5900;SDS011;2976;49.764;9.796;2023-09-18T07:27:06;7.73;;;2.60;;
5900;SDS011;2976;49.764;9.796;2023-09-18T07:29:31;4.80;;;2.13;;
5900;SDS011;2976;49.764;9.796;2023-09-18T07:31:58;4.83;;;2.20;;
5900;SDS011;2976;49.764;9.796;2023-09-18T07:34:26;5.73;;;2.53;;
5900;SDS011;2976;49.764;9.796;2023-09-18T07:36:52;4.13;;;2.70;;
5900;SDS011;2976;49.764;9.796;2023-09-18T07:39:20;4.87;;;2.83;;
5900;SDS011;2976;49.764;9.796;2023-09-18T07:41:46;4.30;;;3.70;;
5900;SDS011;2976;49.764;9.796;2023-09-18T07:44:12;4.93;;;2.77;;
5900;SDS011;2976;49.764;9.796;2023-09-18T07:46:45;6.60;;;2.90;;
5900;SDS011;2976;49.764;9.796;2023-09-18T07:49:11;5.83;;;2.90;;
5900;SDS011;2976;49.764;9.796;2023-09-18T07:51:37;4.30;;;3.10;;
5900;SDS011;2976;49.764;9.796;2023-09-18T07:54:03;8.57;;;2.77;;
5900;SDS011;2976;49.764;9.796;2023-09-18T07:56:28;11.00;;;2.30;;
5900;SDS011;2976;49.764;9.796;2023-09-18T07:58:56;3.73;;;2.60;;
5900;SDS011;2976;49.764;9.796;2023-09-18T08:01:21;5.73;;;2.13;;
5900;SDS011;2976;49.764;9.796;2023-09-18T08:03:48;3.30;;;2.13;;
5900;SDS011;2976;49.764;9.796;2023-09-18T08:06:14;13.83;;;2.60;;
5900;SDS011;2976;49.764;9.796;2023-09-18T08:08:41;4.67;;;2.50;;
5900;SDS011;2976;49.764;9.796;2023-09-18T08:11:07;3.57;;;1.80;;
5900;SDS011;2976;49.764;9.796;2023-09-18T08:13:34;4.77;;;1.73;;
5900;SDS011;2976;49.764;9.796;2023-09-18T08:16:00;2.53;;;1.90;;
5900;SDS011;2976;49.764;9.796;2023-09-18T08:18:25;4.93;;;1.57;;
5900;SDS011;2976;49.764;9.796;2023-09-18T08:20:52;3.53;;;1.80;;
5900;SDS011;2976;49.764;9.796;2023-09-18T08:23:18;4.77;;;1.50;;
5900;SDS011;2976;49.764;9.796;2023-09-18T08:25:44;6.27;;;2.60;;
5900;SDS011;2976;49.764;9.796;2023-09-18T08:28:09;5.70;;;2.17;;
5900;SDS011;2976;49.764;9.796;2023-09-18T08:30:35;5.93;;;2.57;;
5900;SDS011;2976;49.764;9.796;2023-09-18T08:33:02;4.50;;;1.70;;
5900;SDS011;2976;49.764;9.796;2023-09-18T08:35:28;8.60;;;1.53;;
5900;SDS011;2976;49.764;9.796;2023-09-18T08:37:55;4.97;;;2.20;;
5900;SDS011;2976;49.764;9.796;2023-09-18T08:40:22;5.73;;;1.93;;
5900;SDS011;2976;49.764;9.796;2023-09-18T08:42:48;3.03;;;1.73;;
5900;SDS011;2976;49.764;9.796;2023-09-18T08:45:21;4.03;;;1.90;;
5900;SDS011;2976;49.764;9.796;2023-09-18T08:48:00;7.30;;;1.97;;
5900;SDS011;2976;49.764;9.796;2023-09-18T08:50:26;3.17;;;1.50;;
5900;SDS011;2976;49.764;9.796;2023-09-18T08:52:52;4.83;;;1.87;;
5900;SDS011;2976;49.764;9.796;2023-09-18T08:55:19;8.80;;;2.00;;
5900;SDS011;2976;49.764;9.796;2023-09-18T08:57:45;3.50;;;1.60;;
5900;SDS011;2976;49.764;9.796;2023-09-18T09:00:12;4.47;;;1.97;;
5900;SDS011;2976;49.764;9.796;2023-09-18T09:02:42;3.50;;;1.33;;
5900;SDS011;2976;49.764;9.796;2023-09-18T09:05:11;3.83;;;1.30;;
5900;SDS011;2976;49.764;9.796;2023-09-18T09:07:36;5.73;;;2.00;;
5900;SDS011;2976;49.764;9.796;2023-09-18T09:10:02;5.17;;;1.60;;
5900;SDS011;2976;49.764;9.796;2023-09-18T09:15:16;12.00;;;1.93;;
5900;SDS011;2976;49.764;9.796;2023-09-18T09:17:42;5.47;;;2.00;;
5900;SDS011;2976;49.764;9.796;2023-09-18T09:20:10;6.83;;;1.60;;
5900;SDS011;2976;49.764;9.796;2023-09-18T09:22:37;4.00;;;1.20;;
5900;SDS011;2976;49.764;9.796;2023-09-18T09:25:21;3.03;;;1.17;;
5900;SDS011;2976;49.764;9.796;2023-09-18T09:27:51;4.23;;;1.07;;
5900;SDS011;2976;49.764;9.796;2023-09-18T09:30:22;3.13;;;1.40;;
5900;SDS011;2976;49.764;9.796;2023-09-18T09:32:49;5.37;;;1.40;;
5900;SDS011;2976;49.764;9.796;2023-09-18T09:35:26;5.90;;;1.40;;
5900;SDS011;2976;49.764;9.796;2023-09-18T09:37:56;10.10;;;1.37;;
5900;SDS011;2976;49.764;9.796;2023-09-18T09:40:24;4.27;;;1.10;;
5900;SDS011;2976;49.764;9.796;2023-09-18T09:42:51;1.77;;;1.17;;
5900;SDS011;2976;49.764;9.796;2023-09-18T09:45:19;7.40;;;1.43;;
5900;SDS011;2976;49.764;9.796;2023-09-18T09:47:45;1.00;;;0.77;;
5900;SDS011;2976;49.764;9.796;2023-09-18T09:52:45;3.67;;;1.23;;
5900;SDS011;2976;49.764;9.796;2023-09-18T10:03:06;6.20;;;1.40;;
5900;SDS011;2976;49.764;9.796;2023-09-18T10:05:37;5.00;;;1.20;;
5900;SDS011;2976;49.764;9.796;2023-09-18T10:08:08;1.80;;;1.07;;
5900;SDS011;2976;49.764;9.796;2023-09-18T10:10:43;2.80;;;1.53;;
5900;SDS011;2976;49.764;9.796;2023-09-18T10:13:16;4.93;;;1.63;;
5900;SDS011;2976;49.764;9.796;2023-09-18T10:15:44;3.97;;;1.80;;
5900;SDS011;2976;49.764;9.796;2023-09-18T10:20:49;5.30;;;1.27;;
5900;SDS011;2976;49.764;9.796;2023-09-18T10:23:27;7.70;;;1.37;;
5900;SDS011;2976;49.764;9.796;2023-09-18T10:26:04;3.27;;;1.33;;
5900;SDS011;2976;49.764;9.796;2023-09-18T10:28:30;4.60;;;1.63;;
5900;SDS011;2976;49.764;9.796;2023-09-18T10:30:57;1.80;;;1.10;;
5900;SDS011;2976;49.764;9.796;2023-09-18T10:33:25;4.63;;;1.00;;
5900;SDS011;2976;49.764;9.796;2023-09-18T10:35:53;3.17;;;0.90;;
5900;SDS011;2976;49.764;9.796;2023-09-18T10:38:20;2.57;;;1.40;;
5900;SDS011;2976;49.764;9.796;2023-09-18T10:40:46;5.23;;;1.97;;
5900;SDS011;2976;49.764;9.796;2023-09-18T10:43:13;2.83;;;1.63;;
5900;SDS011;2976;49.764;9.796;2023-09-18T10:45:41;5.57;;;2.00;;
5900;SDS011;2976;49.764;9.796;2023-09-18T10:48:09;2.63;;;1.30;;
5900;SDS011;2976;49.764;9.796;2023-09-18T10:50:36;4.40;;;1.30;;
5900;SDS011;2976;49.764;9.796;2023-09-18T10:53:03;2.70;;;1.40;;
5900;SDS011;2976;49.764;9.796;2023-09-18T10:55:29;4.17;;;1.40;;
5900;SDS011;2976;49.764;9.796;2023-09-18T10:57:55;1.47;;;1.37;;
5900;SDS011;2976;49.764;9.796;2023-09-18T11:00:25;4.23;;;1.27;;
5900;SDS011;2976;49.764;9.796;2023-09-18T11:03:14;1.07;;;1.00;;
5900;SDS011;2976;49.764;9.796;2023-09-18T11:05:45;3.63;;;1.70;;
5900;SDS011;2976;49.764;9.796;2023-09-18T11:08:24;3.00;;;1.40;;
5900;SDS011;2976;49.764;9.796;2023-09-18T11:11:01;2.17;;;1.67;;
5900;SDS011;2976;49.764;9.796;2023-09-18T11:18:52;3.23;;;1.37;;
5900;SDS011;2976;49.764;9.796;2023-09-18T11:21:23;2.90;;;1.17;;
5900;SDS011;2976;49.764;9.796;2023-09-18T11:23:57;1.30;;;1.20;;
5900;SDS011;2976;49.764;9.796;2023-09-18T11:26:36;5.03;;;1.90;;
5900;SDS011;2976;49.764;9.796;2023-09-18T11:29:09;5.13;;;1.50;;
5900;SDS011;2976;49.764;9.796;2023-09-18T11:31:55;1.90;;;1.50;;
5900;SDS011;2976;49.764;9.796;2023-09-18T11:36:51;1.60;;;1.10;;
5900;SDS011;2976;49.764;9.796;2023-09-18T11:42:09;1.90;;;1.10;;
5900;SDS011;2976;49.764;9.796;2023-09-18T11:44:36;3.33;;;1.33;;
5900;SDS011;2976;49.764;9.796;2023-09-18T11:47:12;2.30;;;1.30;;
5900;SDS011;2976;49.764;9.796;2023-09-18T11:50:04;2.93;;;1.50;;
5900;SDS011;2976;49.764;9.796;2023-09-18T11:52:36;2.03;;;1.10;;
5900;SDS011;2976;49.764;9.796;2023-09-18T11:55:02;2.93;;;1.20;;
5900;SDS011;2976;49.764;9.796;2023-09-18T11:57:28;4.70;;;1.50;;
5900;SDS011;2976;49.764;9.796;2023-09-18T12:00:00;3.23;;;1.27;;
5900;SDS011;2976;49.764;9.796;2023-09-18T12:02:36;3.50;;;1.53;;
5900;SDS011;2976;49.764;9.796;2023-09-18T12:05:14;2.87;;;1.60;;
5900;SDS011;2976;49.764;9.796;2023-09-18T12:07:41;2.77;;;1.47;;
5900;SDS011;2976;49.764;9.796;2023-09-18T12:10:10;2.40;;;1.50;;
5900;SDS011;2976;49.764;9.796;2023-09-18T12:12:41;2.40;;;1.20;;
5900;SDS011;2976;49.764;9.796;2023-09-18T12:15:08;1.63;;;1.23;;
5900;SDS011;2976;49.764;9.796;2023-09-18T12:17:36;3.37;;;1.50;;
5900;SDS011;2976;49.764;9.796;2023-09-18T12:20:02;6.17;;;1.13;;
5900;SDS011;2976;49.764;9.796;2023-09-18T12:22:30;4.30;;;2.03;;
5900;SDS011;2976;49.764;9.796;2023-09-18T12:25:13;1.90;;;1.10;;
5900;SDS011;2976;49.764;9.796;2023-09-18T12:27:40;1.67;;;1.40;;
5900;SDS011;2976;49.764;9.796;2023-09-18T12:30:06;4.40;;;1.60;;
5900;SDS011;2976;49.764;9.796;2023-09-18T12:32:36;2.80;;;1.70;;
5900;SDS011;2976;49.764;9.796;2023-09-18T12:35:03;4.70;;;1.43;;
5900;SDS011;2976;49.764;9.796;2023-09-18T12:37:32;11.23;;;1.57;;
5900;SDS011;2976;49.764;9.796;2023-09-18T12:39:59;6.30;;;1.20;;
5900;SDS011;2976;49.764;9.796;2023-09-18T12:42:32;4.67;;;1.70;;
5900;SDS011;2976;49.764;9.796;2023-09-18T12:44:58;3.03;;;1.37;;
5900;SDS011;2976;49.764;9.796;2023-09-18T12:47:24;1.50;;;1.40;;
5900;SDS011;2976;49.764;9.796;2023-09-18T12:49:51;2.77;;;1.30;;
5900;SDS011;2976;49.764;9.796;2023-09-18T12:52:21;6.43;;;1.47;;
5900;SDS011;2976;49.764;9.796;2023-09-18T12:54:47;2.43;;;1.00;;
5900;SDS011;2976;49.764;9.796;2023-09-18T12:57:19;2.10;;;1.27;;
5900;SDS011;2976;49.764;9.796;2023-09-18T12:59:45;5.37;;;1.50;;
5900;SDS011;2976;49.764;9.796;2023-09-18T13:02:15;3.83;;;1.10;;
5900;SDS011;2976;49.764;9.796;2023-09-18T13:04:50;5.20;;;1.10;;
5900;SDS011;2976;49.764;9.796;2023-09-18T13:07:18;2.30;;;0.90;;
5900;SDS011;2976;49.764;9.796;2023-09-18T13:09:57;2.07;;;0.90;;
5900;SDS011;2976;49.764;9.796;2023-09-18T13:12:41;2.83;;;1.60;;
5900;SDS011;2976;49.764;9.796;2023-09-18T13:15:08;1.07;;;0.83;;
5900;SDS011;2976;49.764;9.796;2023-09-18T13:17:39;4.30;;;1.03;;
5900;SDS011;2976;49.764;9.796;2023-09-18T13:20:09;4.73;;;1.37;;
5900;SDS011;2976;49.764;9.796;2023-09-18T13:22:47;2.47;;;1.00;;
5900;SDS011;2976;49.764;9.796;2023-09-18T13:25:18;1.77;;;1.03;;
5900;SDS011;2976;49.764;9.796;2023-09-18T13:27:48;1.87;;;1.10;;
5900;SDS011;2976;49.764;9.796;2023-09-18T13:30:15;0.80;;;0.80;;
5900;SDS011;2976;49.764;9.796;2023-09-18T13:32:42;3.27;;;0.90;;
5900;SDS011;2976;49.764;9.796;2023-09-18T13:35:09;3.13;;;1.00;;
5900;SDS011;2976;49.764;9.796;2023-09-18T13:37:36;1.33;;;0.97;;
5900;SDS011;2976;49.764;9.796;2023-09-18T13:40:04;2.43;;;1.30;;
5900;SDS011;2976;49.764;9.796;2023-09-18T13:42:33;1.53;;;1.03;;
5900;SDS011;2976;49.764;9.796;2023-09-18T13:45:00;2.23;;;0.90;;
5900;SDS011;2976;49.764;9.796;2023-09-18T13:47:29;1.00;;;0.90;;
5900;SDS011;2976;49.764;9.796;2023-09-18T13:49:54;3.40;;;0.80;;
5900;SDS011;2976;49.764;9.796;2023-09-18T13:52:25;1.07;;;0.70;;
5900;SDS011;2976;49.764;9.796;2023-09-18T13:54:57;0.90;;;0.90;;
5900;SDS011;2976;49.764;9.796;2023-09-18T13:57:23;0.60;;;0.60;;
5900;SDS011;2976;49.764;9.796;2023-09-18T13:59:49;1.63;;;0.80;;
5900;SDS011;2976;49.764;9.796;2023-09-18T14:02:16;1.00;;;0.90;;
5900;SDS011;2976;49.764;9.796;2023-09-18T14:04:42;3.73;;;1.00;;
5900;SDS011;2976;49.764;9.796;2023-09-18T14:07:08;2.43;;;1.10;;
5900;SDS011;2976;49.764;9.796;2023-09-18T14:09:35;1.07;;;0.80;;
5900;SDS011;2976;49.764;9.796;2023-09-18T14:12:01;1.90;;;0.87;;
5900;SDS011;2976;49.764;9.796;2023-09-18T14:14:32;3.90;;;0.93;;
5900;SDS011;2976;49.764;9.796;2023-09-18T14:16:58;0.83;;;0.83;;
5900;SDS011;2976;49.764;9.796;2023-09-18T14:19:23;2.43;;;1.03;;
5900;SDS011;2976;49.764;9.796;2023-09-18T14:21:49;1.30;;;0.80;;
5900;SDS011;2976;49.764;9.796;2023-09-18T14:24:15;9.57;;;2.23;;
5900;SDS011;2976;49.764;9.796;2023-09-18T14:26:47;0.80;;;0.80;;
5900;SDS011;2976;49.764;9.796;2023-09-18T14:29:14;2.37;;;1.00;;
5900;SDS011;2976;49.764;9.796;2023-09-18T14:31:40;0.97;;;0.87;;
5900;SDS011;2976;49.764;9.796;2023-09-18T14:34:05;1.93;;;0.97;;
5900;SDS011;2976;49.764;9.796;2023-09-18T14:36:31;2.83;;;0.80;;
5900;SDS011;2976;49.764;9.796;2023-09-18T14:38:59;1.90;;;1.03;;
5900;SDS011;2976;49.764;9.796;2023-09-18T14:41:25;4.00;;;1.30;;
5900;SDS011;2976;49.764;9.796;2023-09-18T14:43:51;1.40;;;1.00;;
5900;SDS011;2976;49.764;9.796;2023-09-18T14:46:17;6.00;;;0.97;;
5900;SDS011;2976;49.764;9.796;2023-09-18T14:48:43;3.60;;;0.83;;
5900;SDS011;2976;49.764;9.796;2023-09-18T14:51:09;1.93;;;0.80;;
5900;SDS011;2976;49.764;9.796;2023-09-18T14:53:34;1.77;;;0.90;;
5900;SDS011;2976;49.764;9.796;2023-09-18T14:56:00;1.70;;;0.90;;
5900;SDS011;2976;49.764;9.796;2023-09-18T14:58:26;3.40;;;0.70;;
5900;SDS011;2976;49.764;9.796;2023-09-18T15:00:53;1.67;;;0.67;;
5900;SDS011;2976;49.764;9.796;2023-09-18T15:03:18;1.03;;;0.70;;
5900;SDS011;2976;49.764;9.796;2023-09-18T15:05:44;1.20;;;0.90;;
5900;SDS011;2976;49.764;9.796;2023-09-18T15:08:10;1.63;;;0.80;;
5900;SDS011;2976;49.764;9.796;2023-09-18T15:10:36;0.73;;;0.70;;
5900;SDS011;2976;49.764;9.796;2023-09-18T15:13:02;1.27;;;0.77;;
5900;SDS011;2976;49.764;9.796;2023-09-18T15:15:28;2.40;;;1.00;;
5900;SDS011;2976;49.764;9.796;2023-09-18T15:17:53;1.63;;;1.00;;
5900;SDS011;2976;49.764;9.796;2023-09-18T15:20:19;3.50;;;0.87;;
5900;SDS011;2976;49.764;9.796;2023-09-18T15:22:49;5.73;;;1.47;;
5900;SDS011;2976;49.764;9.796;2023-09-18T15:25:15;2.90;;;0.93;;
5900;SDS011;2976;49.764;9.796;2023-09-18T15:27:41;0.90;;;0.80;;
5900;SDS011;2976;49.764;9.796;2023-09-18T15:30:07;4.57;;;0.97;;
5900;SDS011;2976;49.764;9.796;2023-09-18T15:32:52;0.90;;;0.60;;
5900;SDS011;2976;49.764;9.796;2023-09-18T15:35:19;0.60;;;0.60;;
5900;SDS011;2976;49.764;9.796;2023-09-18T15:37:45;0.70;;;0.70;;
5900;SDS011;2976;49.764;9.796;2023-09-18T15:40:11;1.00;;;0.70;;
5900;SDS011;2976;49.764;9.796;2023-09-18T15:42:40;3.23;;;1.00;;
5900;SDS011;2976;49.764;9.796;2023-09-18T15:45:06;2.33;;;1.20;;
5900;SDS011;2976;49.764;9.796;2023-09-18T15:47:32;1.20;;;0.60;;
5900;SDS011;2976;49.764;9.796;2023-09-18T15:49:58;1.50;;;0.93;;